createdAt,value
2022-11-23T00:00:18.185Z,0.82
2022-11-23T00:05:20.851Z,0.90
2022-11-23T00:10:23.662Z,1.00
2022-11-23T00:15:27.666Z,0.80
2022-11-23T00:20:30.272Z,0.70
2022-11-23T00:25:32.925Z,0.80
2022-11-23T00:30:36.930Z,1.15
2022-11-23T00:35:40.416Z,1.02
2022-11-23T00:40:43.043Z,0.95
2022-11-23T00:45:49.375Z,0.93
2022-11-23T00:50:52.073Z,0.88
2022-11-23T00:55:55.308Z,0.93
2022-11-23T01:01:05.196Z,0.70
2022-11-23T01:06:12.735Z,1.00
2022-11-23T01:11:15.387Z,0.80
2022-11-23T01:16:24.122Z,0.82
2022-11-23T01:21:28.512Z,0.90
2022-11-23T01:26:31.169Z,0.73
2022-11-23T01:31:35.282Z,0.90
2022-11-23T01:36:38.017Z,0.85
2022-11-23T01:41:42.574Z,0.80
2022-11-23T01:46:46.557Z,0.88
2022-11-23T01:51:50.934Z,0.80
2022-11-23T01:56:56.601Z,0.70
2022-11-23T02:02:01.950Z,0.88
2022-11-23T02:07:05.941Z,0.70
2022-11-23T02:12:11.952Z,0.70
2022-11-23T02:17:15.949Z,0.70
2022-11-23T02:22:23.343Z,0.68
2022-11-23T02:27:27.643Z,0.90
2022-11-23T02:32:34.984Z,0.60
2022-11-23T02:37:37.876Z,0.60
2022-11-23T02:42:42.013Z,0.70
2022-11-23T02:47:44.633Z,0.90
2022-11-23T02:52:47.293Z,0.70
2022-11-23T02:57:52.847Z,0.88
2022-11-23T03:02:55.635Z,0.65
2022-11-23T03:07:58.365Z,0.60
2022-11-23T03:13:02.627Z,0.77
2022-11-23T03:18:09.372Z,0.70
2022-11-23T03:23:12.175Z,0.60
2022-11-23T03:28:17.360Z,0.70
2022-11-23T03:33:20.266Z,0.70
2022-11-23T03:38:23.962Z,0.80
2022-11-23T03:43:29.625Z,0.60
2022-11-23T03:48:33.199Z,0.80
2022-11-23T03:53:35.878Z,0.57
2022-11-23T03:58:40.350Z,0.70
2022-11-23T04:03:46.910Z,0.80
2022-11-23T04:09:01.732Z,0.70
2022-11-23T04:14:29.292Z,0.60
2022-11-23T04:19:32.863Z,0.77
2022-11-23T04:24:36.116Z,0.63
2022-11-23T04:29:42.387Z,0.60
2022-11-23T04:34:45.672Z,0.73
2022-11-23T04:39:49.697Z,0.70
2022-11-23T04:44:57.343Z,0.60
2022-11-23T04:50:00.193Z,0.70
2022-11-23T04:55:02.904Z,0.75
2022-11-23T05:00:10.641Z,0.70
2022-11-23T05:05:13.475Z,0.70
2022-11-23T05:10:16.219Z,0.52
2022-11-23T05:15:20.596Z,0.60
2022-11-23T05:20:24.260Z,0.60
2022-11-23T05:25:27.943Z,0.68
2022-11-23T05:30:38.719Z,0.65
2022-11-23T05:35:41.765Z,0.65
2022-11-23T05:40:46.144Z,0.98
2022-11-23T05:45:51.608Z,0.60
2022-11-23T05:50:58.581Z,0.63
2022-11-23T05:56:10.274Z,0.80
2022-11-23T06:01:25.044Z,0.70
2022-11-23T06:06:30.495Z,0.70
2022-11-23T06:11:35.183Z,0.60
2022-11-23T06:16:45.325Z,0.80
2022-11-23T06:22:13.422Z,0.57
2022-11-23T06:27:23.952Z,0.60
2022-11-23T06:32:28.983Z,0.70
2022-11-23T06:37:31.764Z,0.50
2022-11-23T06:42:39.519Z,0.60
2022-11-23T06:47:49.553Z,0.70
2022-11-23T06:52:57.190Z,0.60
2022-11-23T06:58:10.766Z,0.77
2022-11-23T07:03:19.685Z,0.70
2022-11-23T07:08:24.424Z,0.60
2022-11-23T07:13:29.478Z,0.65
2022-11-23T07:18:33.611Z,0.90
2022-11-23T07:23:40.869Z,0.60
2022-11-23T07:28:44.379Z,0.60
2022-11-23T07:33:49.570Z,0.70
2022-11-23T07:38:52.341Z,0.60
2022-11-23T07:43:56.629Z,0.65
2022-11-23T07:49:02.174Z,0.63
2022-11-23T07:54:04.897Z,0.68
2022-11-23T07:59:07.465Z,0.57
2022-11-23T08:04:11.431Z,0.60
2022-11-23T08:09:14.087Z,0.60
2022-11-23T08:14:16.699Z,0.60
2022-11-23T08:19:20.684Z,0.73
2022-11-23T08:24:23.512Z,0.80
2022-11-23T08:29:26.129Z,0.70
2022-11-23T08:34:30.518Z,0.60
2022-11-23T08:39:33.284Z,0.50
2022-11-23T08:44:35.952Z,0.70
2022-11-23T08:49:39.950Z,0.63
2022-11-23T08:54:42.543Z,0.70
2022-11-23T08:59:45.226Z,0.80
2022-11-23T09:04:49.350Z,0.70
2022-11-23T09:09:51.958Z,0.70
2022-11-23T09:14:54.662Z,0.60
2022-11-23T09:19:58.681Z,0.82
2022-11-23T09:25:01.391Z,0.60
2022-11-23T09:30:04.842Z,0.70
2022-11-23T09:35:09.879Z,0.70
2022-11-23T09:40:15.933Z,0.80
2022-11-23T09:45:23.145Z,0.88
2022-11-23T09:50:30.057Z,0.95
2022-11-23T09:55:38.492Z,1.02
2022-11-23T10:00:45.009Z,1.00
2022-11-23T10:05:58.181Z,0.80
2022-11-23T10:11:08.672Z,1.10
2022-11-23T10:16:22.080Z,1.20
2022-11-23T10:21:30.970Z,0.80
2022-11-23T10:26:36.433Z,0.80
2022-11-23T10:31:39.067Z,1.00
2022-11-23T10:36:43.597Z,0.80
2022-11-23T10:41:46.517Z,1.00
2022-11-23T10:46:49.130Z,0.85
2022-11-23T10:51:56.222Z,0.95
2022-11-23T10:57:00.558Z,0.90
2022-11-23T11:02:15.593Z,1.17
2022-11-23T11:07:25.780Z,1.00
2022-11-23T11:12:29.742Z,1.00
2022-11-23T11:17:34.460Z,1.00
2022-11-23T11:22:43.293Z,1.20
2022-11-23T11:27:52.230Z,0.80
2022-11-23T11:32:58.628Z,1.10
2022-11-23T11:38:05.877Z,0.90
2022-11-23T11:43:12.953Z,1.27
2022-11-23T11:48:20.030Z,1.00
2022-11-23T11:53:29.329Z,1.20
2022-11-23T11:58:32.192Z,1.10
2022-11-23T12:03:41.683Z,0.95
2022-11-23T12:08:48.974Z,0.95
2022-11-23T12:13:52.395Z,1.00
2022-11-23T12:19:08.277Z,1.10
2022-11-23T12:24:18.665Z,1.20
2022-11-23T12:29:38.473Z,1.30
2022-11-23T12:34:53.507Z,1.20
2022-11-23T12:40:18.866Z,1.10
2022-11-23T12:45:40.806Z,1.25
2022-11-23T12:50:48.486Z,1.20
2022-11-23T12:55:57.171Z,1.10
2022-11-23T13:01:02.314Z,1.13
2022-11-23T13:06:32.707Z,1.00
2022-11-23T13:11:49.712Z,1.40
2022-11-23T13:17:06.784Z,1.13
2022-11-23T13:22:12.738Z,1.20
2022-11-23T13:27:53.396Z,1.38
2022-11-23T13:33:02.838Z,1.20
2022-11-23T13:38:41.770Z,1.55
2022-11-23T13:43:44.470Z,1.35
2022-11-23T13:48:58.023Z,1.10
2022-11-23T13:54:03.296Z,1.20
2022-11-23T13:59:29.145Z,1.20
2022-11-23T14:04:34.873Z,1.40
2022-11-23T14:09:44.736Z,1.50
2022-11-23T14:14:55.150Z,1.15
2022-11-23T14:20:21.636Z,1.40
2022-11-23T14:25:35.512Z,1.30
2022-11-23T14:30:45.910Z,1.20
2022-11-23T14:35:58.443Z,1.30
2022-11-23T14:41:06.644Z,1.50
2022-11-23T14:46:16.187Z,1.10
2022-11-23T14:51:21.980Z,1.20
2022-11-23T14:56:32.803Z,1.30
2022-11-23T15:01:35.852Z,1.40
2022-11-23T15:06:45.720Z,1.35
2022-11-23T15:11:49.317Z,1.20
2022-11-23T15:16:52.125Z,1.40
2022-11-23T15:21:56.504Z,1.25
2022-11-23T15:27:11.061Z,1.30
2022-11-23T15:32:33.271Z,1.33
2022-11-23T15:37:44.029Z,1.30
2022-11-23T15:42:48.290Z,1.20
2022-11-23T15:47:51.049Z,1.30
2022-11-23T15:52:55.033Z,1.30
2022-11-23T15:57:57.962Z,1.20
2022-11-23T16:03:22.028Z,1.48
2022-11-23T16:08:26.451Z,1.52
2022-11-23T16:13:40.218Z,1.50
2022-11-23T16:18:44.999Z,1.50
2022-11-23T16:23:51.241Z,1.30
2022-11-23T16:28:55.240Z,1.15
2022-11-23T16:33:57.925Z,1.55
2022-11-23T16:39:05.660Z,1.48
2022-11-23T16:44:08.669Z,1.40
2022-11-23T16:49:16.168Z,1.70
2022-11-23T16:54:34.010Z,1.45
2022-11-23T16:59:36.824Z,1.30
2022-11-23T17:04:39.541Z,1.38
2022-11-23T17:09:43.638Z,1.50
2022-11-23T17:14:48.792Z,1.35
2022-11-23T17:19:52.242Z,1.35
2022-11-23T17:24:56.291Z,1.50
2022-11-23T17:30:01.066Z,1.27
2022-11-23T17:35:04.116Z,1.60
2022-11-23T17:40:14.579Z,1.40
2022-11-23T17:45:17.433Z,1.20
2022-11-23T17:50:20.434Z,1.42
2022-11-23T17:55:24.465Z,1.23
2022-11-23T18:00:27.361Z,1.20
2022-11-23T18:05:30.874Z,1.40
2022-11-23T18:10:34.941Z,1.25
2022-11-23T18:15:37.679Z,1.38
2022-11-23T18:20:40.432Z,1.02
2022-11-23T18:25:46.027Z,1.38
2022-11-23T18:30:48.824Z,1.10
2022-11-23T18:35:51.788Z,1.10
2022-11-23T18:40:55.822Z,1.23
2022-11-23T18:45:58.597Z,1.15
2022-11-23T18:51:02.961Z,1.20
2022-11-23T18:56:08.611Z,1.20
2022-11-23T19:01:13.054Z,1.00
2022-11-23T19:06:16.986Z,1.10
2022-11-23T19:11:22.932Z,1.33
2022-11-23T19:16:26.855Z,1.10
2022-11-23T19:21:30.960Z,1.10
2022-11-23T19:26:34.992Z,1.10
2022-11-23T19:31:37.685Z,1.30
2022-11-23T19:36:40.678Z,0.95
2022-11-23T19:41:44.694Z,1.23
2022-11-23T19:46:47.472Z,1.17
2022-11-23T19:51:52.263Z,2.50
2022-11-23T19:56:56.302Z,3.60
2022-11-23T20:01:59.057Z,4.35
2022-11-23T20:07:01.810Z,4.18
2022-11-23T20:12:06.230Z,4.15
2022-11-23T20:17:08.889Z,4.82
2022-11-23T20:22:11.526Z,5.00
2022-11-23T20:27:15.541Z,5.10
2022-11-23T20:32:18.210Z,5.40
2022-11-23T20:37:21.085Z,4.53
2022-11-23T20:42:25.117Z,4.88
2022-11-23T20:47:28.322Z,5.20
2022-11-23T20:52:31.124Z,4.75
2022-11-23T20:57:35.524Z,4.80
2022-11-23T21:02:38.380Z,4.85
2022-11-23T21:07:41.176Z,4.57
2022-11-23T21:13:02.879Z,4.78
2022-11-23T21:18:05.771Z,5.20
2022-11-23T21:23:08.489Z,5.28
2022-11-23T21:28:12.563Z,5.45
2022-11-23T21:33:15.354Z,5.10
2022-11-23T21:38:18.051Z,5.35
2022-11-23T21:43:22.109Z,6.05
2022-11-23T21:48:24.791Z,6.07
2022-11-23T21:53:27.486Z,6.50
2022-11-23T21:58:31.916Z,6.50
2022-11-23T22:03:37.427Z,6.78
2022-11-23T22:08:43.309Z,6.72
2022-11-23T22:13:47.435Z,6.47
2022-11-23T22:18:55.414Z,6.32
2022-11-23T22:23:59.428Z,6.43
2022-11-23T22:29:06.580Z,6.03
2022-11-23T22:34:11.629Z,6.10
2022-11-23T22:39:14.342Z,5.63
2022-11-23T22:44:18.372Z,6.00
2022-11-23T22:49:21.078Z,5.57
2022-11-23T22:54:23.952Z,5.75
2022-11-23T22:59:28.222Z,5.53
2022-11-23T23:04:31.315Z,5.38
2022-11-23T23:09:34.306Z,5.20
2022-11-23T23:14:38.404Z,5.20
2022-11-23T23:19:41.329Z,5.40
2022-11-23T23:24:44.892Z,4.82
2022-11-23T23:29:48.897Z,5.15
2022-11-23T23:34:51.658Z,4.72
2022-11-23T23:39:54.306Z,4.70
2022-11-23T23:44:58.315Z,4.88
2022-11-23T23:50:00.991Z,4.63
2022-11-23T23:55:03.661Z,4.65
